createdAt,value
2022-08-28T00:00:21.765Z,100020.08
2022-08-28T00:03:11.451Z,100019.00
2022-08-28T00:05:45.189Z,100017.01
2022-08-28T00:08:18.234Z,100015.05
2022-08-28T00:10:50.069Z,100018.95
2022-08-28T00:13:25.558Z,100020.74
2022-08-28T00:16:01.121Z,100017.14
2022-08-28T00:18:33.584Z,100015.05
2022-08-28T00:21:05.892Z,100019.30
2022-08-28T00:23:43.036Z,100019.15
2022-08-28T00:26:35.686Z,100021.17
2022-08-28T00:29:08.343Z,100024.91
2022-08-28T00:31:40.970Z,100024.40
2022-08-28T00:34:13.240Z,100019.68
2022-08-28T00:36:45.698Z,100020.99
2022-08-28T00:39:16.449Z,100018.70
2022-08-28T00:41:52.726Z,100024.40
2022-08-28T00:44:30.694Z,100020.92
2022-08-28T00:47:02.754Z,100022.90
2022-08-28T00:49:38.668Z,100016.73
2022-08-28T00:52:12.478Z,100015.83
2022-08-28T00:54:58.440Z,100009.78
2022-08-28T00:57:35.838Z,100012.52
2022-08-28T01:00:12.668Z,100006.83
2022-08-28T01:02:45.014Z,100006.16
2022-08-28T01:05:16.469Z,100007.08
2022-08-28T01:07:49.870Z,100007.30
2022-08-28T01:10:27.760Z,100007.66
2022-08-28T01:13:00.793Z,100010.48
2022-08-28T01:15:37.032Z,100009.05
2022-08-28T01:18:12.220Z,100009.12
2022-08-28T01:20:47.960Z,100009.92
2022-08-28T01:23:26.161Z,100006.59
2022-08-28T01:26:00.195Z,100001.30
2022-08-28T01:28:33.712Z,100000.61
2022-08-28T01:31:05.526Z,100000.54
2022-08-28T01:33:37.273Z,99998.65
2022-08-28T01:36:14.325Z,100000.59
2022-08-28T01:38:50.482Z,100000.09
2022-08-28T01:41:22.242Z,100003.95
2022-08-28T01:43:54.853Z,100002.09
2022-08-28T01:46:26.792Z,99997.78
2022-08-28T01:48:59.513Z,99995.39
2022-08-28T01:51:35.275Z,99992.01
2022-08-28T01:54:10.704Z,99995.42
2022-08-28T01:56:45.910Z,100002.61
2022-08-28T01:59:18.187Z,100005.45
2022-08-28T02:01:49.941Z,100010.55
2022-08-28T02:04:23.120Z,100008.63
2022-08-28T02:07:04.371Z,100012.52
2022-08-28T02:09:36.127Z,100010.80
2022-08-28T02:12:10.892Z,100012.70
2022-08-28T02:14:43.559Z,100016.77
2022-08-28T02:17:15.337Z,100011.02
2022-08-28T02:19:47.153Z,100017.50
2022-08-28T02:22:18.914Z,100017.96
2022-08-28T02:24:50.602Z,100013.46
2022-08-28T02:27:22.456Z,100007.00
2022-08-28T02:29:55.540Z,100002.84
2022-08-28T02:32:25.775Z,100000.54
2022-08-28T02:34:58.120Z,100001.17
2022-08-28T02:37:29.857Z,100000.02
2022-08-28T02:40:01.834Z,99999.22
2022-08-28T02:42:33.836Z,99997.95
2022-08-28T02:45:06.474Z,100000.59
2022-08-28T02:47:38.103Z,100001.16
2022-08-28T02:50:13.034Z,100002.13
2022-08-28T02:52:45.181Z,99999.99
2022-08-28T02:55:19.282Z,99998.22
2022-08-28T02:57:51.490Z,100004.05
2022-08-28T03:00:25.441Z,100007.30
2022-08-28T03:02:57.228Z,100011.36
2022-08-28T03:05:28.915Z,100016.36
2022-08-28T03:08:00.848Z,100019.89
2022-08-28T03:10:33.262Z,100018.38
2022-08-28T03:13:06.081Z,100019.84
2022-08-28T03:15:38.337Z,100020.48
2022-08-28T03:18:11.306Z,100020.77
2022-08-28T03:20:43.821Z,100015.77
2022-08-28T03:23:28.038Z,100015.90
2022-08-28T03:26:02.384Z,100020.96
2022-08-28T03:28:38.365Z,100027.05
2022-08-28T03:31:11.808Z,100025.80
2022-08-28T03:33:44.521Z,100025.23
2022-08-28T03:36:19.096Z,100024.55
2022-08-28T03:38:51.469Z,100025.36
2022-08-28T03:41:25.050Z,100030.62
2022-08-28T03:43:58.069Z,100034.58
2022-08-28T03:46:32.954Z,100032.02
2022-08-28T03:49:06.456Z,100031.86
2022-08-28T03:51:38.320Z,100030.05
2022-08-28T03:54:10.058Z,100031.64
2022-08-28T03:56:43.648Z,100029.11
2022-08-28T03:59:15.694Z,100032.44
2022-08-28T04:01:47.545Z,100030.59
2022-08-28T04:04:19.381Z,100031.80
2022-08-28T04:06:51.189Z,100031.23
2022-08-28T04:09:22.903Z,100039.06
2022-08-28T04:11:55.293Z,100042.27
2022-08-28T04:14:27.093Z,100043.25
2022-08-28T04:17:01.516Z,100044.08
2022-08-28T04:19:33.641Z,100041.61
2022-08-28T04:22:05.520Z,100042.09
2022-08-28T04:24:37.196Z,100043.39
2022-08-28T04:27:08.936Z,100047.05
2022-08-28T04:29:40.609Z,100044.65
2022-08-28T04:32:12.649Z,100042.38
2022-08-28T04:34:44.506Z,100040.64
2022-08-28T04:37:16.217Z,100042.02
2022-08-28T04:39:47.899Z,100048.78
2022-08-28T04:42:19.872Z,100051.02
2022-08-28T04:44:51.684Z,100046.00
2022-08-28T04:47:23.627Z,100049.48
2022-08-28T04:49:55.896Z,100050.17
2022-08-28T04:52:27.831Z,100049.71
2022-08-28T04:54:59.818Z,100053.21
2022-08-28T04:57:36.098Z,100051.30
2022-08-28T05:00:11.703Z,100051.35
2022-08-28T05:02:43.585Z,100049.94
2022-08-28T05:05:15.351Z,100045.00
2022-08-28T05:07:48.288Z,100044.71
2022-08-28T05:10:20.310Z,100043.79
2022-08-28T05:12:52.056Z,100044.63
2022-08-28T05:15:23.853Z,100047.27
2022-08-28T05:17:55.847Z,100046.13
2022-08-28T05:20:27.951Z,100040.95
2022-08-28T05:22:59.657Z,100044.25
2022-08-28T05:25:32.960Z,100046.65
2022-08-28T05:28:06.026Z,100048.45
2022-08-28T05:30:43.441Z,100046.92
2022-08-28T05:33:16.965Z,100045.81
2022-08-28T05:35:49.312Z,100048.26
2022-08-28T05:38:21.291Z,100051.57
2022-08-28T05:40:53.449Z,100054.87
2022-08-28T05:43:25.889Z,100058.21
2022-08-28T05:46:01.271Z,100061.86
2022-08-28T05:48:37.119Z,100066.65
2022-08-28T05:51:14.491Z,100064.04
2022-08-28T05:53:49.771Z,100057.65
2022-08-28T05:56:24.637Z,100058.30
2022-08-28T05:58:56.469Z,100067.33
2022-08-28T06:01:30.282Z,100081.25
2022-08-28T06:04:05.884Z,100079.96
2022-08-28T06:06:39.518Z,100079.73
2022-08-28T06:09:13.937Z,100080.77
2022-08-28T06:11:47.442Z,100076.18
2022-08-28T06:14:21.870Z,100079.89
2022-08-28T06:16:55.673Z,100084.20
2022-08-28T06:19:30.787Z,100083.79
2022-08-28T06:22:07.538Z,100088.42
2022-08-28T06:24:40.570Z,100085.58
2022-08-28T06:27:12.925Z,100078.02
2022-08-28T06:29:44.722Z,100083.71
2022-08-28T06:32:16.676Z,100084.41
2022-08-28T06:34:48.645Z,100089.33
2022-08-28T06:37:20.565Z,100095.56
2022-08-28T06:39:52.466Z,100095.14
2022-08-28T06:42:25.247Z,100088.64
2022-08-28T06:44:57.860Z,100089.20
2022-08-28T06:47:29.623Z,100086.38
2022-08-28T06:50:01.619Z,100089.38
2022-08-28T06:52:33.893Z,100092.73
2022-08-28T06:55:07.289Z,100097.79
2022-08-28T06:57:37.512Z,100095.10
2022-08-28T07:00:12.879Z,100097.85
2022-08-28T07:02:44.785Z,100100.45
2022-08-28T07:05:17.117Z,100101.70
2022-08-28T07:07:49.085Z,100103.09
2022-08-28T07:10:21.296Z,100104.80
2022-08-28T07:12:53.431Z,100101.93
2022-08-28T07:15:25.485Z,100104.86
2022-08-28T07:17:58.225Z,100106.08
2022-08-28T07:20:30.031Z,100103.77
2022-08-28T07:23:01.907Z,100101.59
2022-08-28T07:25:33.947Z,100106.88
2022-08-28T07:28:06.115Z,100100.81
2022-08-28T07:30:40.486Z,100096.88
2022-08-28T07:33:12.674Z,100097.16
2022-08-28T07:35:47.088Z,100095.73
2022-08-28T07:38:18.894Z,100098.85
2022-08-28T07:40:50.614Z,100099.81
2022-08-28T07:43:40.345Z,100098.88
2022-08-28T07:46:12.839Z,100103.42
2022-08-28T07:48:48.053Z,100099.77
2022-08-28T07:51:19.884Z,100105.10
2022-08-28T07:53:52.416Z,100108.90
2022-08-28T07:56:24.243Z,100105.44
2022-08-28T07:58:56.827Z,100108.66
2022-08-28T08:01:30.898Z,100104.77
2022-08-28T08:04:03.386Z,100106.06
2022-08-28T08:06:35.885Z,100108.83
2022-08-28T08:09:12.122Z,100109.10
2022-08-28T08:11:44.843Z,100110.77
2022-08-28T08:14:18.373Z,100109.66
2022-08-28T08:16:50.452Z,100111.20
2022-08-28T08:19:22.212Z,100113.25
2022-08-28T08:21:55.353Z,100114.91
2022-08-28T08:24:30.266Z,100117.40
2022-08-28T08:27:03.544Z,100120.77
2022-08-28T08:29:37.972Z,100126.90
2022-08-28T08:32:11.781Z,100130.07
2022-08-28T08:34:46.712Z,100132.85
2022-08-28T08:37:18.563Z,100133.63
2022-08-28T08:39:50.897Z,100136.73
2022-08-28T08:42:30.416Z,100133.84
2022-08-28T08:45:04.689Z,100135.71
2022-08-28T08:47:41.849Z,100136.70
2022-08-28T08:50:17.797Z,100139.98
2022-08-28T08:53:03.659Z,100139.66
2022-08-28T08:55:38.105Z,100144.73
2022-08-28T08:58:14.777Z,100140.52
2022-08-28T09:00:58.671Z,100138.25
2022-08-28T09:03:54.521Z,100143.46
2022-08-28T09:06:36.789Z,100147.74
2022-08-28T09:09:18.149Z,100146.80
2022-08-28T09:11:57.122Z,100151.98
2022-08-28T09:14:38.267Z,100153.41
2022-08-28T09:17:12.506Z,100154.85
2022-08-28T09:19:44.611Z,100160.77
2022-08-28T09:22:17.116Z,100158.84
2022-08-28T09:24:48.941Z,100163.91
2022-08-28T09:27:28.096Z,100163.19
2022-08-28T09:30:08.096Z,100159.15
2022-08-28T09:32:43.892Z,100159.89
2022-08-28T09:35:27.178Z,100162.73
2022-08-28T09:38:17.532Z,100165.52
2022-08-28T09:41:07.291Z,100161.70
2022-08-28T09:43:45.688Z,100161.02
2022-08-28T09:46:25.456Z,100166.07
2022-08-28T09:49:12.008Z,100164.42
2022-08-28T09:51:44.294Z,100165.17
2022-08-28T09:54:23.676Z,100166.59
2022-08-28T09:56:56.155Z,100168.19
2022-08-28T09:59:30.107Z,100163.61
2022-08-28T10:02:14.613Z,100164.02
2022-08-28T10:04:59.218Z,100160.24
2022-08-28T10:07:41.251Z,100166.66
2022-08-28T10:10:23.118Z,100165.65
2022-08-28T10:13:07.132Z,100173.10
2022-08-28T10:15:57.199Z,100167.92
2022-08-28T10:18:39.408Z,100168.06
2022-08-28T10:21:26.920Z,100167.89
2022-08-28T10:27:22.660Z,100164.32
2022-08-28T10:30:06.777Z,100166.92
2022-08-28T10:33:00.032Z,100166.43
2022-08-28T10:35:43.232Z,100171.16
2022-08-28T10:38:18.733Z,100177.27
2022-08-28T10:40:56.855Z,100179.83
2022-08-28T10:43:34.825Z,100185.29
2022-08-28T10:46:13.574Z,100185.45
2022-08-28T10:48:50.659Z,100187.36
2022-08-28T10:51:35.212Z,100185.73
2022-08-28T10:54:23.121Z,100186.41
2022-08-28T10:56:59.536Z,100187.98
2022-08-28T10:59:33.772Z,100188.66
2022-08-28T11:02:16.724Z,100183.00
2022-08-28T11:04:49.363Z,100184.77
2022-08-28T11:07:30.405Z,100190.03
2022-08-28T11:10:21.645Z,100189.27
2022-08-28T11:12:54.465Z,100192.65
2022-08-28T11:15:50.271Z,100194.88
2022-08-28T11:19:01.999Z,100194.86
2022-08-28T11:21:43.206Z,100197.77
2022-08-28T11:24:29.408Z,100199.84
2022-08-28T11:27:16.875Z,100204.18
2022-08-28T11:30:16.269Z,100205.70
2022-08-28T11:33:03.365Z,100207.98
2022-08-28T11:35:47.159Z,100211.26
2022-08-28T11:39:02.959Z,100214.94
2022-08-28T11:41:38.414Z,100212.27
2022-08-28T11:44:41.455Z,100212.99
2022-08-28T11:47:39.510Z,100219.10
2022-08-28T11:50:34.264Z,100220.79
2022-08-28T11:53:34.860Z,100220.86
2022-08-28T11:56:37.141Z,100224.51
2022-08-28T11:59:24.916Z,100222.23
2022-08-28T12:02:43.273Z,100219.30
2022-08-28T12:05:42.721Z,100219.70
2022-08-28T12:09:09.101Z,100224.92
2022-08-28T12:11:57.666Z,100226.05
2022-08-28T12:15:03.877Z,100223.83
2022-08-28T12:17:57.157Z,100222.64
2022-08-28T12:20:41.047Z,100226.11
2022-08-28T12:23:38.426Z,100228.05
2022-08-28T12:26:19.118Z,100223.17
2022-08-28T12:28:53.787Z,100225.30
2022-08-28T12:32:11.357Z,100224.32
2022-08-28T12:34:51.067Z,100229.66
2022-08-28T12:37:39.423Z,100224.41
2022-08-28T12:40:29.493Z,100227.12
2022-08-28T12:43:05.808Z,100223.08
2022-08-28T12:45:41.839Z,100223.13
2022-08-28T12:48:22.381Z,100220.61
2022-08-28T12:51:03.255Z,100220.44
2022-08-28T12:53:45.190Z,100220.37
2022-08-28T12:56:20.006Z,100221.04
2022-08-28T12:58:52.037Z,100220.40
2022-08-28T13:01:32.527Z,100220.47
2022-08-28T13:04:19.074Z,100221.19
2022-08-28T13:06:58.281Z,100219.86
2022-08-28T13:09:35.369Z,100222.21
2022-08-28T13:12:07.869Z,100220.48
2022-08-28T13:14:43.186Z,100217.81
2022-08-28T13:17:17.447Z,100217.95
2022-08-28T13:20:05.407Z,100222.27
2022-08-28T13:22:40.455Z,100225.23
2022-08-28T13:25:21.017Z,100227.13
2022-08-28T13:28:01.458Z,100220.84
2022-08-28T13:30:35.567Z,100223.39
2022-08-28T13:33:22.903Z,100227.48
2022-08-28T13:35:56.615Z,100227.17
2022-08-28T13:38:28.930Z,100224.92
2022-08-28T13:41:06.163Z,100224.95
2022-08-28T13:43:48.585Z,100219.40
2022-08-28T13:46:20.963Z,100216.19
2022-08-28T13:48:53.493Z,100220.73
2022-08-28T13:51:26.916Z,100220.36
2022-08-28T13:53:59.097Z,100222.91
2022-08-28T13:56:33.153Z,100221.46
2022-08-28T13:59:05.434Z,100226.20
2022-08-28T14:01:57.132Z,100226.47
2022-08-28T14:04:28.918Z,100235.85
2022-08-28T14:07:00.629Z,100234.00
2022-08-28T14:09:32.492Z,100233.05
2022-08-28T14:12:06.056Z,100234.48
2022-08-28T14:14:41.480Z,100234.57
2022-08-28T14:17:14.178Z,100238.30
2022-08-28T14:19:44.342Z,100236.52
2022-08-28T14:22:17.516Z,100237.69
2022-08-28T14:24:49.472Z,100241.58
2022-08-28T14:27:22.129Z,100241.08
2022-08-28T14:29:54.463Z,100244.08
2022-08-28T14:32:26.145Z,100248.33
2022-08-28T14:34:58.296Z,100254.76
2022-08-28T14:37:30.694Z,100254.58
2022-08-28T14:40:03.206Z,100254.46
2022-08-28T14:42:33.366Z,100249.20
2022-08-28T14:45:07.101Z,100246.33
2022-08-28T14:47:39.660Z,100246.08
2022-08-28T14:50:10.871Z,100246.18
2022-08-28T14:52:43.941Z,100251.63
2022-08-28T14:55:18.641Z,100252.69
2022-08-28T14:57:51.785Z,100249.73
2022-08-28T15:00:22.463Z,100258.20
2022-08-28T15:02:59.829Z,100253.44
2022-08-28T15:05:32.240Z,100254.70
2022-08-28T15:08:07.839Z,100257.38
2022-08-28T15:10:42.851Z,100254.23
2022-08-28T15:13:15.830Z,100254.66
2022-08-28T15:15:48.580Z,100248.94
2022-08-28T15:18:20.976Z,100255.77
2022-08-28T15:20:53.833Z,100252.13
2022-08-28T15:23:25.886Z,100254.07
2022-08-28T15:25:57.872Z,100255.04
2022-08-28T15:28:29.946Z,100253.56
2022-08-28T15:31:01.737Z,100261.97
2022-08-28T15:33:33.753Z,100256.63
2022-08-28T15:36:06.567Z,100259.72
2022-08-28T15:38:52.217Z,100261.79
2022-08-28T15:41:27.550Z,100260.10
2022-08-28T15:44:01.776Z,100258.45
2022-08-28T15:46:36.035Z,100256.60
2022-08-28T15:49:09.247Z,100259.09
2022-08-28T15:51:41.392Z,100259.08
2022-08-28T15:54:13.746Z,100263.48
2022-08-28T15:56:45.664Z,100270.84
2022-08-28T15:59:20.973Z,100275.55
2022-08-28T16:01:54.421Z,100279.81
2022-08-28T16:04:26.599Z,100277.73
2022-08-28T16:07:00.675Z,100278.51
2022-08-28T16:09:32.852Z,100283.86
2022-08-28T16:12:04.885Z,100284.24
2022-08-28T16:14:36.708Z,100279.39
2022-08-28T16:17:10.751Z,100280.16
2022-08-28T16:19:44.281Z,100280.64
2022-08-28T16:22:17.225Z,100281.09
2022-08-28T16:24:50.799Z,100280.71
2022-08-28T16:27:22.503Z,100289.49
2022-08-28T16:29:54.853Z,100290.59
2022-08-28T16:32:26.925Z,100292.55
2022-08-28T16:34:59.478Z,100294.77
2022-08-28T16:37:39.570Z,100295.27
2022-08-28T16:40:14.916Z,100295.44
2022-08-28T16:42:51.445Z,100292.39
2022-08-28T16:45:24.512Z,100298.13
2022-08-28T16:47:56.439Z,100297.97
2022-08-28T16:50:31.708Z,100299.37
2022-08-28T16:53:06.788Z,100299.42
2022-08-28T16:55:40.491Z,100300.51
2022-08-28T16:58:16.683Z,100305.67
2022-08-28T17:00:52.764Z,100303.04
2022-08-28T17:03:26.967Z,100309.14
2022-08-28T17:06:03.145Z,100306.33
2022-08-28T17:08:35.087Z,100301.61
2022-08-28T17:11:07.700Z,100304.60
2022-08-28T17:13:37.899Z,100302.89
2022-08-28T17:16:10.624Z,100304.27
2022-08-28T17:18:48.181Z,100305.98
2022-08-28T17:21:42.809Z,100307.50
2022-08-28T17:24:14.632Z,100304.77
2022-08-28T17:26:47.004Z,100308.89
2022-08-28T17:29:18.963Z,100310.73
2022-08-28T17:31:51.004Z,100312.35
2022-08-28T17:34:25.754Z,100314.49
2022-08-28T17:37:01.483Z,100319.94
2022-08-28T17:39:33.673Z,100324.09
2022-08-28T17:42:07.474Z,100325.83
2022-08-28T17:44:40.079Z,100322.95
2022-08-28T17:47:12.390Z,100328.58
2022-08-28T17:49:44.473Z,100324.58
2022-08-28T17:52:16.416Z,100332.04
2022-08-28T17:54:48.172Z,100329.97
2022-08-28T17:57:19.993Z,100332.87
2022-08-28T17:59:51.877Z,100334.14
2022-08-28T18:02:23.649Z,100337.35
2022-08-28T18:04:55.694Z,100340.04
2022-08-28T18:07:27.526Z,100345.06
2022-08-28T18:09:59.595Z,100348.48
2022-08-28T18:12:31.534Z,100353.60
2022-08-28T18:15:04.788Z,100361.04
2022-08-28T18:17:38.394Z,100366.11
2022-08-28T18:20:12.555Z,100370.48
2022-08-28T18:22:44.501Z,100374.59
2022-08-28T18:25:31.343Z,100377.43
2022-08-28T18:28:03.950Z,100377.52
2022-08-28T18:30:36.885Z,100377.71
2022-08-28T18:33:25.249Z,100382.41
2022-08-28T18:35:57.089Z,100388.40
2022-08-28T18:38:34.857Z,100387.81
2022-08-28T18:41:08.335Z,100392.48
2022-08-28T18:43:40.806Z,100392.16
2022-08-28T18:46:14.354Z,100397.51
2022-08-28T18:48:47.177Z,100396.94
2022-08-28T18:51:21.234Z,100402.75
2022-08-28T18:53:53.582Z,100403.66
2022-08-28T18:56:25.237Z,100402.44
2022-08-28T18:59:03.833Z,100407.15
2022-08-28T19:01:35.996Z,100407.76
2022-08-28T19:04:06.694Z,100405.45
2022-08-28T19:06:38.481Z,100406.18
2022-08-28T19:09:11.646Z,100405.30
2022-08-28T19:11:52.300Z,100410.23
2022-08-28T19:14:24.409Z,100410.69
2022-08-28T19:16:56.977Z,100413.73
2022-08-28T19:19:29.387Z,100416.94
2022-08-28T19:22:01.957Z,100415.91
2022-08-28T19:24:33.831Z,100420.04
2022-08-28T19:27:06.144Z,100422.58
2022-08-28T19:29:38.130Z,100422.77
2022-08-28T19:32:10.681Z,100430.75
2022-08-28T19:34:43.667Z,100432.13
2022-08-28T19:37:16.449Z,100437.30
2022-08-28T19:39:56.045Z,100436.66
2022-08-28T19:42:29.020Z,100442.23
2022-08-28T19:45:00.124Z,100449.23
2022-08-28T19:47:35.756Z,100451.74
2022-08-28T19:50:10.055Z,100454.73
2022-08-28T19:52:43.295Z,100455.42
2022-08-28T19:55:19.193Z,100450.11
2022-08-28T19:57:51.312Z,100450.14
2022-08-28T20:00:25.280Z,100452.71
2022-08-28T20:02:57.801Z,100451.62
2022-08-28T20:05:29.945Z,100452.72
2022-08-28T20:08:02.064Z,100455.02
2022-08-28T20:10:33.872Z,100456.06
2022-08-28T20:13:05.632Z,100461.64
2022-08-28T20:15:37.583Z,100460.47
2022-08-28T20:18:09.808Z,100462.34
2022-08-28T20:20:44.517Z,100466.04
2022-08-28T20:23:16.911Z,100464.02
2022-08-28T20:25:51.730Z,100468.73
2022-08-28T20:28:23.356Z,100470.45
2022-08-28T20:30:55.078Z,100474.27
2022-08-28T20:33:27.117Z,100475.14
2022-08-28T20:36:04.657Z,100478.58
2022-08-28T20:38:37.921Z,100482.56
2022-08-28T20:41:12.552Z,100483.30
2022-08-28T20:43:46.347Z,100490.64
2022-08-28T20:46:19.840Z,100487.42
2022-08-28T20:48:51.832Z,100486.88
2022-08-28T20:51:45.521Z,100488.45
2022-08-28T20:54:17.312Z,100496.86
2022-08-28T20:56:49.152Z,100494.48
2022-08-28T20:59:22.427Z,100497.70
2022-08-28T21:01:55.469Z,100496.88
2022-08-28T21:04:28.502Z,100492.45
2022-08-28T21:07:00.730Z,100494.25
2022-08-28T21:09:35.865Z,100494.95
2022-08-28T21:12:24.706Z,100497.32
2022-08-28T21:14:57.039Z,100500.80
2022-08-28T21:17:30.682Z,100502.37
2022-08-28T21:20:08.317Z,100503.11
2022-08-28T21:22:40.773Z,100498.96
2022-08-28T21:25:15.401Z,100499.65
2022-08-28T21:27:47.931Z,100500.88
2022-08-28T21:30:21.986Z,100503.34
2022-08-28T21:32:54.359Z,100507.42
2022-08-28T21:35:26.119Z,100512.13
2022-08-28T21:37:57.828Z,100514.70
2022-08-28T21:40:29.528Z,100512.96
2022-08-28T21:43:01.186Z,100516.98
2022-08-28T21:45:32.911Z,100518.81
2022-08-28T21:48:05.121Z,100518.48
2022-08-28T21:50:36.853Z,100523.91
2022-08-28T21:53:08.618Z,100520.74
2022-08-28T21:55:40.861Z,100524.14
2022-08-28T21:58:12.670Z,100523.06
2022-08-28T22:00:49.677Z,100523.42
2022-08-28T22:03:22.586Z,100525.28
2022-08-28T22:05:55.511Z,100527.36
2022-08-28T22:08:28.644Z,100531.38
2022-08-28T22:11:00.372Z,100529.61
2022-08-28T22:13:32.235Z,100531.42
2022-08-28T22:16:04.545Z,100532.65
2022-08-28T22:18:36.639Z,100533.22
2022-08-28T22:21:29.294Z,100529.53
2022-08-28T22:24:01.448Z,100530.83
2022-08-28T22:26:33.305Z,100534.55
2022-08-28T22:29:05.860Z,100531.83
2022-08-28T22:31:36.709Z,100535.53
2022-08-28T22:34:13.038Z,100537.30
2022-08-28T22:36:44.705Z,100534.88
2022-08-28T22:39:16.473Z,100535.39
2022-08-28T22:41:48.399Z,100536.98
2022-08-28T22:44:22.003Z,100537.91
2022-08-28T22:46:53.740Z,100540.66
2022-08-28T22:49:26.184Z,100541.14
2022-08-28T22:51:58.282Z,100544.64
2022-08-28T22:54:30.302Z,100545.30
2022-08-28T22:57:02.081Z,100544.83
2022-08-28T22:59:33.877Z,100552.14
2022-08-28T23:02:06.577Z,100553.29
2022-08-28T23:04:36.698Z,100555.78
2022-08-28T23:07:08.533Z,100559.27
2022-08-28T23:09:40.516Z,100557.85
2022-08-28T23:12:12.430Z,100556.34
2022-08-28T23:14:48.252Z,100551.71
2022-08-28T23:17:21.226Z,100552.93
2022-08-28T23:19:52.919Z,100552.27
2022-08-28T23:22:24.729Z,100556.29
2022-08-28T23:24:56.370Z,100556.89
2022-08-28T23:27:36.281Z,100557.31
2022-08-28T23:30:10.465Z,100560.48
2022-08-28T23:32:42.296Z,100557.45
2022-08-28T23:35:16.518Z,100553.92
2022-08-28T23:37:51.982Z,100557.13
2022-08-28T23:40:28.147Z,100557.19
2022-08-28T23:43:02.881Z,100553.64
2022-08-28T23:45:35.131Z,100553.86
2022-08-28T23:48:07.264Z,100551.40
2022-08-28T23:50:40.854Z,100551.09
2022-08-28T23:53:13.122Z,100553.45
2022-08-28T23:55:44.801Z,100551.24
2022-08-28T23:58:16.765Z,100550.77
